首页
METAR-TAF:

METAR-TAF

机场 :

波德戈里察國際機場

波德戈里察, 蒙特內哥羅

纬度: 42-26N, 经度: 019-17E, 海拔: 53米

当前天气观测

该预报发布于33分钟前的21:00 UTC
风速4节,风向西转西南
温度 9°C
湿度 100%
气压 1018 hPa
能見度: 2300
少量云层高于2000英尺
散云层高于3000英尺
多云层高于4000英尺

METAR: LYPG 262100Z 25004KT 2300 RA FEW020 SCT030 BKN040 09/09 Q1018 NOSIG

时间: 22:33 (21:33 UTC)

预报

该预报发布于4小时和33分钟前的17:00 UTC
预报有效从26日的 18点(UTC)到 27日的 18点(UTC)
风速2节,风向多变
能見度: 0400
少量云层高于500英尺
散云层高于3000英尺
多云层高于7000英尺
小雨, 雾
短暂存在
从 26日的 18点(UTC)到 27日的 07点(UTC)
能見度: 1000
小雨, 轻雾
成为
从 27日的 07点(UTC)到 27日的 08点(UTC)
能見度: 2000
轻雾
成为
从 27日的 08点(UTC)到 27日的 10点(UTC)
能见度10公里或以上

TAF: LYPG 261700Z 2618/2718 VRB02KT 0400 -RA FG FEW005 SCT030 BKN070 TX12/2712Z TN05/2705Z TEMPO 2618/2707 1000 -RA BR BECMG 2707/2708 2000 BR BECMG 2708/2710 9999 NSW

超过4000个机场的气象观测和天气预报(METAR&TAF报告)。

可查询的气象台以黄色和红色小点在地图上表示。

将鼠标移到小点上方,可查看气象台名称。

然后点击查看天气观测和预报。

如需切换地图:点击带黑十字的绿色按钮放大地图;点击带横线的绿色按钮缩小地图;或者点击绿色箭头查看邻近地区的地图。


METAR-TAF: